Time;durP1;ratioP1;P1;durP2;ratioP2;P2;SDS_P1;SDS_P2;PMS_P1;PMS_P2;Temp;Humidity;BMP_temperature;BMP_pressure;BME280_temperature;BME280_humidity;BME280_pressure;Samples;Min_cycle;Max_cycle;Signal;HPM_P1;HPM_P2
2023/08/01 00:02:44;;;;;;;5.00;3.93;;;18.80;99.90;;;;;;6166491;23;20487;-79
2023/08/01 00:05:31;;;;;;;6.53;4.23;;;18.80;99.90;;;;;;6162501;23;20459;-78
2023/08/01 00:15:08;;;;;;;4.20;3.80;;;18.70;99.90;;;;;;6173253;23;20435;-78
2023/08/01 00:18:24;;;;;;;4.47;3.90;;;18.70;99.90;;;;;;6175201;23;20407;-79
2023/08/01 00:31:09;;;;;;;4.47;4.07;;;18.70;99.90;;;;;;6165198;23;20436;-76
2023/08/01 00:50:05;;;;;;;5.17;3.83;;;18.60;99.90;;;;;;6130003;23;20885;-78
2023/08/01 00:52:51;;;;;;;5.53;4.77;;;18.60;99.90;;;;;;6169664;23;20431;-78
2023/08/01 00:55:54;;;;;;;4.10;3.50;;;18.50;99.90;;;;;;6170281;23;20432;-81
2023/08/01 01:22:29;;;;;;;6.47;4.40;;;18.30;99.90;;;;;;6025760;23;20421;-79
2023/08/01 01:25:13;;;;;;;5.07;4.57;;;18.30;99.90;;;;;;6135678;23;20488;-78
2023/08/01 01:27:57;;;;;;;5.20;4.13;;;18.30;99.90;;;;;;6224452;23;20390;-79
2023/08/01 01:34:01;;;;;;;6.20;4.40;;;18.30;99.90;;;;;;6224961;23;20471;-78
2023/08/01 01:37:11;;;;;;;6.27;4.90;;;18.40;99.90;;;;;;6230365;23;20457;-78
2023/08/01 01:43:13;;;;;;;4.60;4.07;;;18.20;99.90;;;;;;6221039;23;20460;-78
2023/08/01 01:45:50;;;;;;;4.60;4.20;;;18.40;99.90;;;;;;6229904;23;20433;-78
2023/08/01 01:48:39;;;;;;;4.17;3.80;;;18.50;99.90;;;;;;6230361;23;20422;-78
2023/08/01 01:51:27;;;;;;;5.73;4.40;;;18.40;99.90;;;;;;6226760;23;20416;-79
2023/08/01 01:54:09;;;;;;;4.57;4.17;;;18.30;99.90;;;;;;6221803;23;20405;-78
2023/08/01 01:59:42;;;;;;;5.20;4.10;;;18.30;99.90;;;;;;6220573;23;20424;-79
2023/08/01 02:02:21;;;;;;;5.07;4.67;;;18.10;99.90;;;;;;6225098;23;20418;-79
2023/08/01 02:04:54;;;;;;;4.07;3.70;;;18.30;99.90;;;;;;6225586;23;20445;-78
2023/08/01 02:07:33;;;;;;;5.00;4.40;;;18.30;99.90;;;;;;6228230;23;20408;-78
2023/08/01 02:10:10;;;;;;;6.83;5.40;;;18.30;99.90;;;;;;6233600;23;20406;-76
2023/08/01 02:12:50;;;;;;;5.03;3.97;;;18.20;99.90;;;;;;6235751;23;20409;-78
2023/08/01 02:15:27;;;;;;;4.90;4.30;;;18.20;99.90;;;;;;6235704;23;20411;-79
2023/08/01 02:18:12;;;;;;;5.43;4.90;;;18.20;99.90;;;;;;6233576;23;20406;-77
2023/08/01 02:21:01;;;;;;;5.07;4.57;;;18.30;99.90;;;;;;6233528;23;20399;-78
2023/08/01 02:23:38;;;;;;;5.50;4.97;;;18.20;99.90;;;;;;6233715;23;20442;-78
2023/08/01 02:26:26;;;;;;;6.10;4.90;;;18.20;99.90;;;;;;6232650;23;20440;-80
2023/08/01 02:32:09;;;;;;;4.83;4.33;;;18.30;99.90;;;;;;6226946;23;20417;-80
2023/08/01 02:35:02;;;;;;;9.30;5.07;;;18.10;99.90;;;;;;6228931;23;20449;-79
2023/08/01 02:40:59;;;;;;;;;;;;;;;;;;;;;
2023/08/01 02:43:57;;;;;;;5.27;4.80;;;18.10;99.90;;;;;;6226818;23;20466;-81
2023/08/01 02:46:50;;;;;;;4.93;4.50;;;18.10;99.90;;;;;;6225141;23;20427;-79
2023/08/01 02:49:44;;;;;;;5.03;4.50;;;18.10;99.90;;;;;;6225443;23;20486;-78
2023/08/01 02:52:30;;;;;;;5.83;5.33;;;18.10;99.90;;;;;;6161350;23;20439;-77
2023/08/01 02:55:17;;;;;;;5.30;4.80;;;18.10;99.90;;;;;;6221668;23;20422;-80
2023/08/01 02:57:56;;;;;;;5.10;4.60;;;18.10;99.90;;;;;;6225125;23;20414;-77
2023/08/01 03:00:40;;;;;;;7.50;5.47;;;18.10;99.90;;;;;;6224794;23;20406;-80
2023/08/01 03:03:25;;;;;;;9.87;9.00;;;18.00;99.90;;;;;;6226660;23;20434;-79
2023/08/01 03:06:15;;;;;;;5.87;5.47;;;18.00;99.90;;;;;;6226013;23;20769;-80
2023/08/01 03:08:57;;;;;;;5.30;4.90;;;18.00;99.90;;;;;;6225137;23;20503;-77
2023/08/01 03:11:30;;;;;;;5.73;4.67;;;18.00;99.90;;;;;;6223835;23;20799;-80
2023/08/01 03:14:09;;;;;;;9.50;4.80;;;17.90;99.90;;;;;;6222582;23;20438;-78
2023/08/01 03:16:43;;;;;;;5.20;4.60;;;18.00;99.90;;;;;;6222931;23;20423;-80
2023/08/01 03:19:19;;;;;;;6.77;4.80;;;18.00;99.90;;;;;;6222094;23;20410;-78
2023/08/01 03:21:57;;;;;;;4.53;4.17;;;18.00;99.90;;;;;;6221425;23;20441;-78
2023/08/01 03:24:39;;;;;;;5.10;4.63;;;18.00;99.90;;;;;;6224887;23;20434;-79
2023/08/01 03:27:15;;;;;;;4.87;4.47;;;18.10;99.90;;;;;;6222498;23;20453;-80
2023/08/01 03:29:58;;;;;;;5.07;4.63;;;18.10;99.90;;;;;;6221633;23;20398;-78
2023/08/01 03:35:58;;;;;;;5.73;5.10;;;18.10;99.90;;;;;;6225270;23;20478;-78
2023/08/01 03:38:38;;;;;;;6.93;5.10;;;18.10;99.90;;;;;;6226299;23;20424;-78
2023/08/01 03:41:21;;;;;;;5.60;4.87;;;18.10;99.90;;;;;;6228821;23;20395;-80
2023/08/01 03:43:58;;;;;;;6.30;5.20;;;18.10;99.90;;;;;;6224694;23;20446;-79
2023/08/01 03:46:36;;;;;;;6.70;4.80;;;18.10;99.90;;;;;;6219860;23;20501;-79
2023/08/01 03:49:18;;;;;;;5.43;4.20;;;18.10;99.90;;;;;;6221144;23;20434;-79
2023/08/01 03:51:59;;;;;;;6.30;4.70;;;18.10;99.90;;;;;;6221676;23;20415;-79
2023/08/01 03:54:42;;;;;;;6.47;4.50;;;18.20;99.90;;;;;;6220193;23;20461;-78
2023/08/01 03:57:29;;;;;;;4.50;4.10;;;18.30;99.90;;;;;;6220935;23;20441;-79
2023/08/01 04:03:14;;;;;;;7.27;4.57;;;18.50;99.90;;;;;;6147478;23;20413;-78
2023/08/01 04:05:55;;;;;;;4.37;3.97;;;18.50;99.90;;;;;;6220488;23;20445;-78
2023/08/01 04:08:49;;;;;;;7.77;4.50;;;18.50;99.90;;;;;;6221055;23;20896;-79
2023/08/01 04:11:26;;;;;;;7.33;6.70;;;18.40;99.90;;;;;;6192001;23;20490;-79
2023/08/01 04:14:08;;;;;;;6.37;3.73;;;18.70;99.90;;;;;;6222208;23;20402;-79
2023/08/01 04:17:32;;;;;;;;;;;;;;;;;;;;;
2023/08/01 04:20:29;;;;;;;4.77;3.70;;;18.70;99.90;;;;;;6222865;23;20836;-78
2023/08/01 04:23:22;;;;;;;4.87;3.77;;;18.70;99.90;;;;;;6221759;23;20438;-79
2023/08/01 04:26:12;;;;;;;5.00;4.50;;;18.70;99.90;;;;;;6220751;23;20436;-78
2023/08/01 04:28:50;;;;;;;3.57;3.23;;;18.70;99.90;;;;;;6219154;23;20918;-77
2023/08/01 04:31:29;;;;;;;4.50;3.90;;;18.70;99.90;;;;;;6220129;23;20468;-77
2023/08/01 04:37:05;;;;;;;;;;;;;;;;;;;;;
2023/08/01 04:40:03;;;;;;;5.20;4.40;;;18.90;99.90;;;;;;6220579;23;20602;-79
2023/08/01 04:42:54;;;;;;;;;;;;;;;;;;;;;
2023/08/01 04:48:53;;;;;;;4.10;3.70;;;18.70;99.90;;;;;;6092774;23;20398;-79
2023/08/01 04:51:30;;;;;;;5.20;3.70;;;18.70;99.90;;;;;;6074818;23;20922;-78
2023/08/01 04:54:18;;;;;;;4.07;3.73;;;18.80;99.90;;;;;;6224183;23;20959;-80
2023/08/01 04:56:53;;;;;;;4.37;3.97;;;18.90;99.90;;;;;;6225136;23;20437;-80
2023/08/01 04:59:27;;;;;;;4.37;3.90;;;18.90;99.90;;;;;;6224689;23;20408;-80
2023/08/01 05:02:09;;;;;;;3.20;3.00;;;18.90;99.90;;;;;;6224754;23;20464;-79
2023/08/01 05:04:48;;;;;;;4.30;3.57;;;19.00;99.90;;;;;;6228932;23;20829;-76
2023/08/01 05:10:14;;;;;;;4.70;3.60;;;19.00;99.90;;;;;;6221266;23;20405;-82
2023/08/01 05:12:46;;;;;;;4.10;3.60;;;19.00;99.90;;;;;;6225586;23;20406;-80
2023/08/01 05:15:36;;;;;;;3.90;3.60;;;19.00;99.90;;;;;;6221821;23;20449;-79
2023/08/01 05:18:24;;;;;;;4.40;3.10;;;19.10;99.90;;;;;;6224272;23;20477;-79
2023/08/01 05:21:12;;;;;;;4.83;3.77;;;19.00;99.90;;;;;;6227263;23;20417;-78
2023/08/01 05:23:56;;;;;;;4.00;3.00;;;19.00;99.90;;;;;;6226686;23;20414;-78
2023/08/01 05:26:41;;;;;;;18.77;4.40;;;19.00;99.90;;;;;;6230367;23;20806;-79
2023/08/01 05:29:39;;;;;;;3.80;3.40;;;19.00;99.90;;;;;;6228765;23;20434;-78
2023/08/01 05:32:11;;;;;;;4.07;3.67;;;18.90;99.90;;;;;;6226848;23;20470;-80
2023/08/01 05:34:59;;;;;;;4.07;3.07;;;18.90;99.90;;;;;;6230476;23;20430;-78
2023/08/01 05:37:40;;;;;;;3.93;3.63;;;18.90;99.90;;;;;;6230805;23;20425;-79
2023/08/01 05:43:31;;;;;;;6.97;4.07;;;19.00;99.90;;;;;;6219302;23;20418;-77
2023/08/01 05:46:32;;;;;;;5.90;4.33;;;19.00;99.90;;;;;;6226841;23;20733;-79
2023/08/01 05:49:13;;;;;;;6.13;4.97;;;19.00;99.90;;;;;;6229044;23;20413;-77
2023/08/01 05:51:50;;;;;;;9.23;5.30;;;18.90;99.90;;;;;;6232129;23;20398;-80
2023/08/01 05:54:36;;;;;;;5.63;5.10;;;19.10;99.90;;;;;;6234601;23;20406;-78
2023/08/01 05:57:29;;;;;;;5.40;5.00;;;19.10;99.90;;;;;;6235328;23;20478;-76
2023/08/01 06:00:24;;;;;;;;;;;;;;;;;;;;;
2023/08/01 06:03:02;;;;;;;4.60;4.20;;;19.20;99.90;;;;;;6233924;23;20387;-76
2023/08/01 06:11:59;;;;;;;6.13;4.80;;;19.30;99.90;;;;;;6232583;23;20406;-79
2023/08/01 06:18:03;;;;;;;6.40;5.10;;;19.40;99.90;;;;;;6215876;23;20410;-79
2023/08/01 06:20:54;;;;;;;5.23;4.20;;;19.40;99.90;;;;;;6236783;23;20470;-79
2023/08/01 06:23:51;;;;;;;4.63;4.17;;;19.50;99.90;;;;;;6234211;23;20406;-76
2023/08/01 06:26:31;;;;;;;7.00;4.70;;;19.50;99.90;;;;;;6236196;23;20452;-78
2023/08/01 06:29:39;;;;;;;4.67;3.73;;;19.40;99.90;;;;;;6237607;23;20693;-78
2023/08/01 06:32:16;;;;;;;5.80;4.17;;;19.40;99.90;;;;;;6152159;23;20410;-78
2023/08/01 06:35:08;;;;;;;10.23;4.80;;;19.30;99.90;;;;;;6239872;23;20497;-79
2023/08/01 06:37:48;;;;;;;6.17;5.53;;;19.20;99.90;;;;;;6239638;23;20401;-77
2023/08/01 06:40:47;;;;;;;8.20;5.03;;;19.00;99.90;;;;;;6238358;23;20430;-80
2023/08/01 06:43:28;;;;;;;6.00;4.80;;;18.90;99.90;;;;;;6238819;23;20418;-78
2023/08/01 06:46:16;;;;;;;6.10;4.90;;;18.80;99.90;;;;;;6238569;23;20442;-79
2023/08/01 06:48:59;;;;;;;5.57;5.07;;;18.80;99.90;;;;;;6240668;23;20401;-78
2023/08/01 06:51:30;;;;;;;5.73;5.17;;;18.70;99.90;;;;;;6241007;23;20398;-78
2023/08/01 06:54:01;;;;;;;5.27;4.83;;;18.60;99.90;;;;;;6240512;23;20433;-78
2023/08/01 06:56:51;;;;;;;5.60;5.10;;;18.20;99.90;;;;;;6237487;23;20426;-78
2023/08/01 07:00:03;;;;;;;5.50;4.90;;;18.40;99.90;;;;;;6236036;23;20475;-78
2023/08/01 07:12:54;;;;;;;7.37;6.67;;;18.30;99.90;;;;;;5946159;24;20446;-78
2023/08/01 07:15:41;;;;;;;8.33;6.10;;;18.30;99.90;;;;;;6012421;23;20462;-78
2023/08/01 07:18:16;;;;;;;9.30;6.90;;;18.30;99.90;;;;;;6087229;23;20438;-80
2023/08/01 07:21:18;;;;;;;8.00;6.50;;;18.30;99.90;;;;;;6086664;23;20423;-80
2023/08/01 07:24:18;;;;;;;;;;;;;;;;;;;;;
2023/08/01 07:27:12;;;;;;;9.43;6.77;;;18.30;99.90;;;;;;6086024;23;20396;-79
2023/08/01 07:30:04;;;;;;;8.57;6.37;;;18.30;99.90;;;;;;6125748;23;20421;-79
2023/08/01 07:33:05;;;;;;;22.67;6.13;;;18.20;99.90;;;;;;6227377;23;20414;-79
2023/08/01 07:35:43;;;;;;;8.43;6.83;;;17.80;99.90;;;;;;6223102;23;20422;-79
2023/08/01 07:38:31;;;;;;;9.23;6.77;;;17.60;99.90;;;;;;6226740;23;20486;-79
2023/08/01 07:41:39;;;;;;;;;;;;;;;;;;;;;
2023/08/01 07:47:26;;;;;;;6.73;5.93;;;17.50;99.90;;;;;;6217617;23;20402;-78
2023/08/01 07:50:43;;;;;;;6.70;6.00;;;17.40;99.90;;;;;;6235126;23;20410;-79
2023/08/01 07:53:47;;;;;;;7.27;5.67;;;17.30;99.90;;;;;;6237788;23;20407;-81
2023/08/01 07:56:48;;;;;;;5.90;5.30;;;17.30;99.90;;;;;;6230696;23;20426;-79
2023/08/01 07:59:46;;;;;;;6.00;5.40;;;17.10;99.90;;;;;;6233873;23;20410;-80
2023/08/01 08:02:35;;;;;;;7.73;5.30;;;17.10;99.90;;;;;;6236283;23;20406;-80
2023/08/01 08:05:16;;;;;;;5.30;4.90;;;17.10;99.90;;;;;;6233878;23;20434;-78
2023/08/01 08:08:16;;;;;;;5.90;5.27;;;17.10;99.90;;;;;;6231878;23;20418;-81
2023/08/01 08:11:03;;;;;;;5.07;4.57;;;17.10;99.90;;;;;;6110828;23;20410;-83
2023/08/01 08:14:07;;;;;;;5.63;5.13;;;17.20;99.90;;;;;;6232046;23;20410;-80
2023/08/01 08:17:05;;;;;;;5.80;4.13;;;17.20;99.90;;;;;;6231845;23;20545;-82
2023/08/01 08:19:49;;;;;;;5.13;4.40;;;17.20;99.90;;;;;;6226219;23;20464;-79
2023/08/01 08:22:23;;;;;;;4.37;3.50;;;17.20;99.90;;;;;;6225646;23;20440;-81
2023/08/01 08:25:05;;;;;;;4.63;4.00;;;17.20;99.90;;;;;;6228730;23;20442;-79
2023/08/01 08:27:43;;;;;;;4.40;4.00;;;17.20;99.90;;;;;;6229062;23;20414;-80
2023/08/01 08:30:18;;;;;;;4.50;3.40;;;17.30;99.90;;;;;;6228942;23;20403;-80
2023/08/01 08:32:58;;;;;;;4.20;3.60;;;17.30;99.90;;;;;;6229365;23;20417;-79
2023/08/01 08:35:43;;;;;;;5.33;3.53;;;17.30;99.90;;;;;;6228841;23;20441;-80
2023/08/01 08:38:28;;;;;;;4.67;3.23;;;17.30;99.90;;;;;;6230263;23;20409;-79
2023/08/01 08:41:11;;;;;;;3.83;3.50;;;17.30;99.90;;;;;;6226712;23;20414;-79
2023/08/01 08:43:45;;;;;;;4.53;4.03;;;17.30;99.90;;;;;;6224790;23;20771;-79
2023/08/01 08:46:30;;;;;;;4.30;3.63;;;17.40;99.90;;;;;;6228994;23;20441;-80
2023/08/01 08:49:05;;;;;;;3.40;3.10;;;17.50;99.90;;;;;;6226236;23;20418;-80
2023/08/01 08:51:47;;;;;;;3.67;3.37;;;17.60;99.90;;;;;;6224925;23;20923;-80
2023/08/01 08:54:22;;;;;;;4.47;4.07;;;17.70;99.90;;;;;;6222474;23;20421;-79
2023/08/01 08:56:57;;;;;;;3.77;3.43;;;17.80;99.90;;;;;;6223965;23;20409;-79
2023/08/01 08:59:50;;;;;;;4.70;3.80;;;17.90;99.90;;;;;;6223870;23;20410;-78
2023/08/01 09:02:27;;;;;;;5.83;3.20;;;18.00;99.90;;;;;;6226475;23;20472;-78
2023/08/01 09:05:06;;;;;;;3.40;2.80;;;18.10;99.90;;;;;;6225151;23;20496;-80
2023/08/01 09:08:02;;;;;;;2.90;2.70;;;18.10;99.90;;;;;;6225730;23;20418;-79
2023/08/01 09:10:42;;;;;;;4.23;3.20;;;18.20;99.90;;;;;;6227318;23;20407;-81
2023/08/01 09:13:35;;;;;;;3.70;3.40;;;18.20;99.90;;;;;;6228073;23;20410;-80
2023/08/01 09:16:19;;;;;;;2.70;2.50;;;18.20;99.90;;;;;;6227064;23;20426;-79
2023/08/01 09:18:59;;;;;;;3.67;3.37;;;18.20;99.90;;;;;;6222370;23;20508;-79
2023/08/01 09:21:44;;;;;;;3.47;2.90;;;18.10;99.90;;;;;;6226338;23;20437;-79
2023/08/01 09:24:22;;;;;;;4.03;3.00;;;18.10;99.90;;;;;;6222899;23;20410;-79
2023/08/01 09:27:24;;;;;;;3.37;3.07;;;18.10;99.90;;;;;;6228747;23;20438;-78
2023/08/01 09:30:15;;;;;;;2.90;2.70;;;18.20;99.90;;;;;;6228692;23;20493;-79
2023/08/01 09:33:05;;;;;;;3.30;3.00;;;18.20;99.90;;;;;;6227444;23;20604;-78
2023/08/01 09:35:55;;;;;;;3.60;2.80;;;18.20;99.90;;;;;;6230803;23;20442;-81
2023/08/01 09:38:35;;;;;;;2.80;2.60;;;18.40;99.90;;;;;;6229671;23;20428;-79
2023/08/01 09:41:24;;;;;;;3.20;2.90;;;18.50;99.90;;;;;;6227280;23;20406;-80
2023/08/01 09:43:59;;;;;;;2.63;2.43;;;18.50;99.90;;;;;;6226169;23;20419;-80
2023/08/01 09:46:48;;;;;;;2.13;1.93;;;18.60;99.90;;;;;;6224107;23;20446;-79
2023/08/01 09:49:27;;;;;;;2.07;1.97;;;18.70;99.90;;;;;;6222481;23;20420;-80
2023/08/01 09:52:09;;;;;;;2.00;1.90;;;18.80;99.90;;;;;;6226121;23;20411;-81
2023/08/01 09:54:54;;;;;;;1.30;1.30;;;18.90;99.90;;;;;;6225528;23;20445;-81
2023/08/01 09:57:31;;;;;;;1.43;1.37;;;18.80;99.90;;;;;;6228125;23;20419;-81
2023/08/01 10:03:08;;;;;;;1.47;1.37;;;19.10;99.90;;;;;;6223399;23;20394;-80
2023/08/01 10:06:04;;;;;;;1.43;1.30;;;19.20;99.90;;;;;;6222764;23;20480;-80
2023/08/01 10:08:44;;;;;;;1.00;1.00;;;19.10;99.90;;;;;;6225244;23;20445;-80
2023/08/01 10:11:21;;;;;;;1.07;0.97;;;19.10;99.90;;;;;;6223647;23;20414;-80
2023/08/01 10:14:15;;;;;;;0.70;0.70;;;19.30;99.90;;;;;;6222993;23;20413;-80
2023/08/01 10:16:49;;;;;;;0.80;0.80;;;19.10;99.90;;;;;;6223190;23;20430;-81
2023/08/01 10:19:41;;;;;;;1.10;0.73;;;19.10;99.90;;;;;;6223586;23;20566;-80
2023/08/01 10:22:40;;;;;;;0.70;0.70;;;19.10;99.90;;;;;;6223374;23;20502;-83
2023/08/01 10:25:21;;;;;;;1.23;0.80;;;19.20;99.90;;;;;;6225082;23;20434;-80
2023/08/01 10:28:02;;;;;;;0.77;0.77;;;19.30;99.90;;;;;;6225316;23;20753;-80
2023/08/01 10:30:35;;;;;;;1.53;1.27;;;19.40;99.90;;;;;;6224273;23;20402;-82
2023/08/01 10:33:13;;;;;;;1.43;1.33;;;19.40;99.90;;;;;;6222585;23;20493;-79
2023/08/01 10:35:57;;;;;;;0.90;0.90;;;19.40;99.90;;;;;;6223090;23;20525;-84
2023/08/01 10:38:51;;;;;;;0.90;0.90;;;19.60;99.90;;;;;;6226594;23;20430;-82
2023/08/01 10:41:54;;;;;;;0.80;0.80;;;19.30;99.90;;;;;;6211629;23;20429;-82
2023/08/01 10:44:31;;;;;;;0.50;0.50;;;19.60;99.90;;;;;;6223156;23;20481;-81
2023/08/01 10:47:08;;;;;;;0.93;0.60;;;19.50;99.90;;;;;;6226902;23;20438;-80
2023/08/01 10:50:07;;;;;;;1.10;1.00;;;19.40;99.90;;;;;;6226565;23;20425;-80
2023/08/01 10:52:39;;;;;;;0.80;0.70;;;19.50;99.90;;;;;;6223644;23;20487;-79
2023/08/01 10:55:17;;;;;;;0.60;0.60;;;19.20;99.90;;;;;;6223155;23;20493;-80
2023/08/01 10:57:55;;;;;;;2.53;0.90;;;19.20;99.90;;;;;;6223815;23;20461;-79
2023/08/01 11:00:28;;;;;;;1.83;0.90;;;19.40;99.90;;;;;;6225068;23;20421;-81
2023/08/01 11:03:16;;;;;;;0.60;0.60;;;19.50;99.90;;;;;;6224010;23;20468;-80
2023/08/01 11:06:04;;;;;;;1.00;0.90;;;19.80;99.90;;;;;;6223359;23;20449;-80
2023/08/01 11:08:43;;;;;;;0.73;0.73;;;20.10;99.90;;;;;;6222231;23;20453;-80
2023/08/01 11:11:15;;;;;;;0.80;0.80;;;20.60;99.90;;;;;;6223853;23;20406;-80
2023/08/01 11:14:01;;;;;;;1.20;1.20;;;20.70;99.90;;;;;;6230161;23;20414;-79
2023/08/01 11:16:41;;;;;;;1.20;1.10;;;20.60;99.90;;;;;;6232244;23;20422;-80
2023/08/01 11:19:28;;;;;;;0.70;0.70;;;20.90;99.90;;;;;;6231892;23;20373;-82
2023/08/01 11:22:00;;;;;;;1.00;0.90;;;21.40;99.90;;;;;;6230186;23;20414;-80
2023/08/01 11:24:36;;;;;;;0.87;0.87;;;21.60;99.90;;;;;;6228778;23;20430;-81
2023/08/01 11:27:20;;;;;;;1.10;1.10;;;21.80;99.90;;;;;;6226972;23;20441;-81
2023/08/01 11:30:00;;;;;;;1.03;1.03;;;22.00;99.90;;;;;;6225778;23;20430;-81
2023/08/01 11:32:41;;;;;;;1.07;1.07;;;21.70;99.90;;;;;;6226287;23;20485;-82
2023/08/01 11:35:22;;;;;;;1.00;0.97;;;21.50;99.90;;;;;;6224224;23;20437;-79
2023/08/01 11:38:01;;;;;;;1.47;0.90;;;21.60;99.90;;;;;;6225480;23;20835;-81
2023/08/01 11:40:28;;;;;;;1.90;1.20;;;21.80;99.90;;;;;;6224904;23;20413;-81
2023/08/01 11:43:10;;;;;;;0.97;0.97;;;21.70;99.90;;;;;;6221004;23;20405;-80
2023/08/01 11:48:44;;;;;;;1.93;1.33;;;22.50;99.90;;;;;;6226562;23;20449;-79
2023/08/01 11:51:19;;;;;;;1.20;1.10;;;22.90;99.90;;;;;;6224873;23;20409;-80
2023/08/01 11:54:11;;;;;;;1.37;1.10;;;23.00;99.90;;;;;;6228526;23;20409;-79
2023/08/01 11:56:59;;;;;;;1.40;1.30;;;22.60;99.90;;;;;;6224919;23;20414;-78
2023/08/01 11:59:48;;;;;;;1.27;1.17;;;22.80;99.90;;;;;;6221451;23;20476;-79
2023/08/01 12:02:32;;;;;;;1.07;1.07;;;23.00;99.90;;;;;;6218263;23;20907;-79
2023/08/01 12:05:01;;;;;;;1.30;1.20;;;23.60;99.90;;;;;;6217507;23;20418;-79
2023/08/01 12:07:32;;;;;;;1.17;1.07;;;23.80;99.90;;;;;;6218959;23;20442;-82
2023/08/01 12:10:04;;;;;;;2.13;1.17;;;23.60;99.90;;;;;;6219967;23;20414;-79
2023/08/01 12:12:53;;;;;;;1.27;1.17;;;23.90;99.90;;;;;;6219404;23;20434;-82
2023/08/01 12:15:30;;;;;;;2.87;1.20;;;23.60;99.90;;;;;;6223365;23;20431;-80
2023/08/01 12:18:14;;;;;;;1.20;1.10;;;23.90;99.90;;;;;;6223949;23;20410;-81
2023/08/01 12:21:16;;;;;;;2.10;1.20;;;23.70;99.90;;;;;;6220610;23;20489;-80
2023/08/01 12:23:51;;;;;;;1.27;1.17;;;23.30;99.90;;;;;;6219959;23;20456;-80
2023/08/01 12:26:27;;;;;;;2.60;1.30;;;23.20;99.90;;;;;;6219341;23;20442;-79
2023/08/01 12:29:10;;;;;;;1.40;1.30;;;23.50;99.90;;;;;;6219984;23;20413;-81
2023/08/01 12:31:45;;;;;;;2.37;1.17;;;23.40;99.90;;;;;;6219966;23;20414;-81
2023/08/01 12:34:36;;;;;;;1.23;1.20;;;23.40;99.90;;;;;;6221267;23;20472;-81
2023/08/01 12:37:12;;;;;;;1.27;1.10;;;23.90;99.90;;;;;;6218623;23;20808;-79
2023/08/01 12:39:44;;;;;;;0.90;0.90;;;24.10;99.90;;;;;;6218570;23;20406;-81
2023/08/01 12:42:13;;;;;;;1.70;1.23;;;23.80;99.90;;;;;;6219899;23;20414;-81
2023/08/01 12:44:50;;;;;;;1.53;1.43;;;23.80;99.90;;;;;;6221108;23;20418;-80
2023/08/01 12:47:21;;;;;;;1.40;1.30;;;24.10;99.90;;;;;;6219645;23;20442;-77
2023/08/01 12:50:00;;;;;;;1.40;1.20;;;24.20;99.90;;;;;;6223671;23;20461;-79
2023/08/01 12:52:32;;;;;;;1.13;1.00;;;24.40;99.90;;;;;;6215293;23;20402;-80
2023/08/01 12:55:06;;;;;;;1.80;1.10;;;24.20;99.90;;;;;;6222349;23;20938;-81
2023/08/01 12:57:43;;;;;;;2.60;1.13;;;24.60;99.90;;;;;;6223004;23;20554;-81
2023/08/01 13:00:18;;;;;;;1.20;1.10;;;24.80;99.90;;;;;;6221854;23;20878;-80
2023/08/01 13:02:58;;;;;;;1.50;1.40;;;24.60;99.90;;;;;;6223993;23;20413;-80
2023/08/01 13:05:49;;;;;;;2.00;1.50;;;24.20;99.90;;;;;;6225015;23;20482;-81
2023/08/01 13:08:31;;;;;;;1.40;1.30;;;24.30;99.90;;;;;;6224528;23;20445;-80
2023/08/01 13:11:03;;;;;;;1.20;1.20;;;24.00;99.90;;;;;;6223832;23;20437;-80
2023/08/01 13:13:49;;;;;;;1.70;1.30;;;23.60;99.90;;;;;;6229277;23;20402;-80
2023/08/01 13:19:21;;;;;;;1.73;1.30;;;24.20;99.90;;;;;;6225540;23;20411;-80
2023/08/01 13:22:07;;;;;;;1.90;1.57;;;24.40;99.90;;;;;;6225224;23;20432;-80
2023/08/01 13:25:03;;;;;;;1.50;1.30;;;24.70;99.90;;;;;;6226823;23;20491;-80
2023/08/01 13:28:06;;;;;;;;;;;;;;;;;;;;;
2023/08/01 13:30:43;;;;;;;1.40;1.30;;;24.30;99.90;;;;;;6230907;23;20398;-80
2023/08/01 13:33:21;;;;;;;1.20;1.10;;;24.20;99.90;;;;;;6231316;23;20414;-80
2023/08/01 13:36:09;;;;;;;1.30;1.20;;;24.30;99.90;;;;;;6232864;23;20457;-79
2023/08/01 13:38:52;;;;;;;1.47;1.37;;;24.50;99.90;;;;;;6231379;23;20410;-81
2023/08/01 13:48:22;;;;;;;1.47;1.37;;;24.40;99.90;;;;;;6036443;23;20453;-80
2023/08/01 13:51:05;;;;;;;1.53;1.43;;;24.60;99.90;;;;;;6230355;23;20989;-81
2023/08/01 13:54:03;;;;;;;1.60;1.33;;;24.90;99.90;;;;;;6228759;23;20525;-81
2023/08/01 13:57:00;;;;;;;;;;;;;;;;;;;;;
2023/08/01 13:59:41;;;;;;;2.03;1.33;;;25.60;99.90;;;;;;6230884;23;20417;-80
2023/08/01 14:02:33;;;;;;;3.70;1.43;;;25.20;99.90;;;;;;6231322;23;20481;-80
2023/08/01 14:05:10;;;;;;;2.20;1.73;;;25.70;99.90;;;;;;6232059;23;20457;-81
2023/08/01 14:07:45;;;;;;;1.80;1.50;;;25.60;99.90;;;;;;6231736;23;20461;-79
2023/08/01 14:13:35;;;;;;;2.50;1.50;;;25.30;99.90;;;;;;6129538;23;20390;-79
2023/08/01 14:18:59;;;;;;;1.60;1.50;;;25.60;99.90;;;;;;6237201;23;20487;-79
2023/08/01 14:21:30;;;;;;;2.97;1.77;;;26.20;99.90;;;;;;6235782;23;20409;-79
2023/08/01 14:24:02;;;;;;;1.77;1.50;;;25.70;99.90;;;;;;6232494;23;20421;-79
2023/08/01 14:26:41;;;;;;;1.67;1.53;;;25.70;99.90;;;;;;6236493;22;20459;-77
2023/08/01 14:29:12;;;;;;;2.10;1.57;;;25.70;99.90;;;;;;6242544;23;20394;-77
2023/08/01 14:31:50;;;;;;;1.60;1.50;;;25.50;99.90;;;;;;6242543;22;20425;-78
2023/08/01 14:37:23;;;;;;;4.37;1.50;;;25.90;99.90;;;;;;6240913;22;20398;-79
2023/08/01 14:39:59;;;;;;;1.30;1.27;;;25.80;99.90;;;;;;6242646;22;20394;-77
2023/08/01 14:42:41;;;;;;;2.23;1.20;;;25.70;99.90;;;;;;6235469;23;20417;-79
2023/08/01 14:45:15;;;;;;;1.07;1.07;;;25.90;99.90;;;;;;6231614;23;20453;-80
2023/08/01 14:47:54;;;;;;;1.67;1.03;;;25.70;99.90;;;;;;6230301;23;20442;-80
2023/08/01 14:50:26;;;;;;;2.03;1.40;;;25.30;99.90;;;;;;6228448;23;20398;-80
2023/08/01 14:53:02;;;;;;;1.10;1.10;;;25.50;99.90;;;;;;6222610;23;20394;-80
2023/08/01 14:55:36;;;;;;;1.43;1.33;;;26.10;99.90;;;;;;6219582;23;20525;-80
2023/08/01 14:58:08;;;;;;;2.30;1.20;;;25.80;99.90;;;;;;6219538;23;20390;-80
2023/08/01 15:00:46;;;;;;;1.80;1.70;;;25.60;99.90;;;;;;6218990;23;20523;-80
2023/08/01 15:03:14;;;;;;;1.37;1.27;;;25.80;99.90;;;;;;6219074;23;20406;-79
2023/08/01 15:05:57;;;;;;;1.47;1.37;;;25.70;99.90;;;;;;6220138;23;20437;-79
2023/08/01 15:08:39;;;;;;;1.77;1.67;;;25.80;99.90;;;;;;6225653;23;20500;-80
2023/08/01 15:11:15;;;;;;;1.17;1.07;;;26.00;99.90;;;;;;6237970;23;20418;-78
2023/08/01 15:13:54;;;;;;;1.90;1.57;;;25.50;99.90;;;;;;6240426;23;20410;-79
2023/08/01 15:16:24;;;;;;;1.90;1.63;;;25.90;99.90;;;;;;6240093;23;20457;-77
2023/08/01 15:18:59;;;;;;;1.50;1.40;;;26.20;99.90;;;;;;6238308;23;20474;-79
2023/08/01 15:21:47;;;;;;;;;;;;;;;;;;;;;
2023/08/01 15:27:57;;;;;;;2.27;1.40;;;25.30;99.90;;;;;;6235564;23;20426;-79
2023/08/01 15:30:40;;;;;;;1.43;1.17;;;25.40;99.90;;;;;;6235914;23;20411;-79
2023/08/01 15:33:31;;;;;;;1.63;1.53;;;25.50;99.90;;;;;;6235103;23;20445;-81
2023/08/01 15:36:16;;;;;;;3.83;1.70;;;25.60;99.90;;;;;;6235716;23;20429;-79
2023/08/01 15:39:03;;;;;;;1.70;1.50;;;25.70;99.90;;;;;;6234367;23;20416;-80
2023/08/01 15:44:48;;;;;;;1.93;1.83;;;25.30;99.90;;;;;;6237352;23;20430;-79
2023/08/01 15:47:42;;;;;;;2.83;1.30;;;25.40;99.90;;;;;;6238942;23;20410;-80
2023/08/01 15:50:28;;;;;;;2.10;1.90;;;25.10;99.90;;;;;;6238890;22;20433;-80
2023/08/01 15:53:16;;;;;;;2.30;1.40;;;25.10;99.90;;;;;;6239060;23;20421;-80
2023/08/01 15:56:11;;;;;;;3.77;1.30;;;25.00;99.90;;;;;;6237715;23;20438;-80
2023/08/01 15:58:45;;;;;;;1.83;1.60;;;24.60;99.90;;;;;;6230859;23;20406;-79
2023/08/01 16:01:16;;;;;;;1.43;1.33;;;24.40;99.90;;;;;;6224418;23;20468;-81
2023/08/01 16:03:47;;;;;;;1.50;1.50;;;24.20;99.90;;;;;;6220867;23;20406;-80
2023/08/01 16:06:26;;;;;;;2.17;1.60;;;24.20;99.90;;;;;;6219191;23;20708;-79
2023/08/01 16:08:58;;;;;;;1.30;1.20;;;24.40;99.90;;;;;;6218664;23;20516;-81
2023/08/01 16:11:28;;;;;;;1.30;1.20;;;24.30;99.90;;;;;;6221701;23;20489;-81
2023/08/01 16:14:15;;;;;;;1.93;1.50;;;24.80;99.90;;;;;;6223827;23;20908;-82
2023/08/01 16:16:51;;;;;;;1.43;1.33;;;25.00;99.90;;;;;;6220815;23;20478;-80
2023/08/01 16:19:26;;;;;;;2.50;1.80;;;24.50;99.90;;;;;;6226790;23;20414;-79
2023/08/01 16:22:05;;;;;;;2.00;1.40;;;24.30;99.90;;;;;;6233624;23;20445;-81
2023/08/01 16:25:04;;;;;;;1.33;1.23;;;24.40;99.90;;;;;;6231314;23;20457;-79
2023/08/01 16:27:45;;;;;;;1.30;1.30;;;24.50;99.90;;;;;;6232287;23;20442;-79
2023/08/01 16:30:18;;;;;;;1.73;1.57;;;24.30;99.90;;;;;;6232942;23;20679;-80
2023/08/01 16:32:56;;;;;;;1.20;1.20;;;24.00;99.90;;;;;;6232590;23;20414;-80
2023/08/01 16:35:27;;;;;;;1.57;1.47;;;24.10;99.90;;;;;;6226115;23;20430;-80
2023/08/01 16:37:56;;;;;;;1.60;1.50;;;23.80;99.90;;;;;;6218837;23;20433;-79
2023/08/01 16:40:26;;;;;;;1.93;1.57;;;23.80;99.90;;;;;;6218601;23;20410;-80
2023/08/01 16:43:04;;;;;;;2.20;1.70;;;23.70;99.90;;;;;;6220822;23;20422;-79
2023/08/01 16:45:35;;;;;;;1.60;1.50;;;23.70;99.90;;;;;;6223125;23;20650;-78
2023/08/01 16:48:06;;;;;;;2.00;1.40;;;23.80;99.90;;;;;;6225589;23;20441;-79